sensor_id;sensor_type;location;lat;lon;timestamp;pressure;altitude;pressure_sealevel;temperature;humidity
13011;BME280;6786;57.632;11.962;2023-08-31T00:01:44;99836.72;;;20.42;68.68
13011;BME280;6786;57.632;11.962;2023-08-31T00:04:14;99923.25;;;20.93;68.81
13011;BME280;6786;57.632;11.962;2023-08-31T00:06:44;99922.41;;;20.93;68.85
13011;BME280;6786;57.632;11.962;2023-08-31T00:09:14;99851.69;;;20.52;68.46
13011;BME280;6786;57.632;11.962;2023-08-31T00:11:43;99920.72;;;20.92;68.42
13011;BME280;6786;57.632;11.962;2023-08-31T00:14:12;99921.38;;;20.94;68.57
13011;BME280;6786;57.632;11.962;2023-08-31T00:16:41;99915.88;;;20.95;68.66
13011;BME280;6786;57.632;11.962;2023-08-31T00:19:10;99914.56;;;20.99;68.47
13011;BME280;6786;57.632;11.962;2023-08-31T00:21:40;99917.56;;;20.96;68.57
13011;BME280;6786;57.632;11.962;2023-08-31T00:24:08;99914.03;;;20.96;68.50
13011;BME280;6786;57.632;11.962;2023-08-31T00:26:37;99918.56;;;20.95;68.68
13011;BME280;6786;57.632;11.962;2023-08-31T00:29:10;99852.38;;;20.54;68.59
13011;BME280;6786;57.632;11.962;2023-08-31T00:31:43;99920.25;;;20.96;68.24
13011;BME280;6786;57.632;11.962;2023-08-31T00:34:15;99923.94;;;20.95;68.40
13011;BME280;6786;57.632;11.962;2023-08-31T00:36:49;99924.94;;;20.94;68.46
13011;BME280;6786;57.632;11.962;2023-08-31T00:39:18;99777.75;;;20.00;68.21
13011;BME280;6786;57.632;11.962;2023-08-31T00:41:48;99927.25;;;20.89;68.60
13011;BME280;6786;57.632;11.962;2023-08-31T00:44:17;99888.97;;;20.63;68.80
13011;BME280;6786;57.632;11.962;2023-08-31T00:46:46;99917.16;;;20.83;68.77
13011;BME280;6786;57.632;11.962;2023-08-31T00:49:16;99925.91;;;20.85;68.62
13011;BME280;6786;57.632;11.962;2023-08-31T00:51:49;99919.69;;;20.85;68.52
13011;BME280;6786;57.632;11.962;2023-08-31T00:54:18;99762.31;;;19.94;68.57
13011;BME280;6786;57.632;11.962;2023-08-31T00:56:53;99917.16;;;20.83;68.42
13011;BME280;6786;57.632;11.962;2023-08-31T00:59:21;99921.72;;;20.83;68.67
13011;BME280;6786;57.632;11.962;2023-08-31T01:01:56;99913.50;;;20.84;68.53
13011;BME280;6786;57.632;11.962;2023-08-31T01:04:41;99908.13;;;20.84;68.70
13011;BME280;6786;57.632;11.962;2023-08-31T01:07:21;99898.38;;;20.75;68.62
13011;BME280;6786;57.632;11.962;2023-08-31T01:10:04;99836.06;;;20.32;68.18
13011;BME280;6786;57.632;11.962;2023-08-31T01:12:40;99844.63;;;20.43;68.63
13011;BME280;6786;57.632;11.962;2023-08-31T01:15:13;99917.16;;;20.83;68.56
13011;BME280;6786;57.632;11.962;2023-08-31T01:17:46;99910.47;;;20.79;68.56
13011;BME280;6786;57.632;11.962;2023-08-31T01:20:19;99917.16;;;20.83;68.39
13011;BME280;6786;57.632;11.962;2023-08-31T01:23:00;99917.16;;;20.83;68.40
13011;BME280;6786;57.632;11.962;2023-08-31T01:25:34;99909.59;;;20.79;68.57
13011;BME280;6786;57.632;11.962;2023-08-31T01:28:06;99906.75;;;20.80;68.61
13011;BME280;6786;57.632;11.962;2023-08-31T01:30:36;99918.19;;;20.82;68.79
13011;BME280;6786;57.632;11.962;2023-08-31T01:33:05;99910.47;;;20.79;68.87
13011;BME280;6786;57.632;11.962;2023-08-31T01:35:40;99915.50;;;20.82;68.41
13011;BME280;6786;57.632;11.962;2023-08-31T01:38:14;99916.53;;;20.81;68.66
13011;BME280;6786;57.632;11.962;2023-08-31T01:40:49;99919.19;;;20.81;68.65
13011;BME280;6786;57.632;11.962;2023-08-31T01:43:24;99923.38;;;20.84;68.67
13011;BME280;6786;57.632;11.962;2023-08-31T01:45:55;99911.47;;;20.86;68.45
13011;BME280;6786;57.632;11.962;2023-08-31T01:48:26;99892.31;;;20.73;68.20
13011;BME280;6786;57.632;11.962;2023-08-31T01:50:56;99906.09;;;20.86;68.34
13011;BME280;6786;57.632;11.962;2023-08-31T01:53:27;99907.13;;;20.85;68.53
13011;BME280;6786;57.632;11.962;2023-08-31T01:55:58;99906.09;;;20.86;68.69
13011;BME280;6786;57.632;11.962;2023-08-31T01:58:27;99908.13;;;20.84;68.66
13011;BME280;6786;57.632;11.962;2023-08-31T02:00:55;99902.75;;;20.84;68.59
13011;BME280;6786;57.632;11.962;2023-08-31T02:03:24;99904.75;;;20.82;68.61
13011;BME280;6786;57.632;11.962;2023-08-31T02:05:53;99905.59;;;20.83;68.69
13011;BME280;6786;57.632;11.962;2023-08-31T02:08:21;99832.53;;;20.39;68.35
13011;BME280;6786;57.632;11.962;2023-08-31T02:10:51;99900.72;;;20.78;68.32
13011;BME280;6786;57.632;11.962;2023-08-31T02:13:22;99903.91;;;20.82;68.40
13011;BME280;6786;57.632;11.962;2023-08-31T02:15:51;99836.25;;;20.38;68.60
13011;BME280;6786;57.632;11.962;2023-08-31T02:18:20;99871.16;;;20.62;68.63
13011;BME280;6786;57.632;11.962;2023-08-31T02:20:51;99897.72;;;20.81;68.63
13011;BME280;6786;57.632;11.962;2023-08-31T02:23:21;99808.38;;;20.31;68.46
13011;BME280;6786;57.632;11.962;2023-08-31T02:25:50;99824.50;;;20.39;68.63
13011;BME280;6786;57.632;11.962;2023-08-31T02:28:19;99893.16;;;20.82;68.30
13011;BME280;6786;57.632;11.962;2023-08-31T02:30:57;99893.16;;;20.82;68.56
13011;BME280;6786;57.632;11.962;2023-08-31T02:33:26;99898.38;;;20.83;68.29
13011;BME280;6786;57.632;11.962;2023-08-31T02:35:55;99885.28;;;20.80;68.23
13011;BME280;6786;57.632;11.962;2023-08-31T02:38:23;99888.66;;;20.82;68.55
13011;BME280;6786;57.632;11.962;2023-08-31T02:40:52;99894.00;;;20.82;68.29
13011;BME280;6786;57.632;11.962;2023-08-31T02:43:20;99818.13;;;20.40;68.45
13011;BME280;6786;57.632;11.962;2023-08-31T02:45:58;99901.38;;;20.80;68.10
13011;BME280;6786;57.632;11.962;2023-08-31T02:48:28;99870.16;;;20.63;68.23
13011;BME280;6786;57.632;11.962;2023-08-31T02:50:57;99894.19;;;20.81;68.45
13011;BME280;6786;57.632;11.962;2023-08-31T02:53:28;99627.78;;;19.25;68.07
13011;BME280;6786;57.632;11.962;2023-08-31T02:55:57;99806.38;;;20.33;68.18
13011;BME280;6786;57.632;11.962;2023-08-31T02:58:25;99883.44;;;20.81;68.34
13011;BME280;6786;57.632;11.962;2023-08-31T03:01:06;99882.41;;;20.82;68.32
13011;BME280;6786;57.632;11.962;2023-08-31T03:03:35;99864.13;;;20.69;68.22
13011;BME280;6786;57.632;11.962;2023-08-31T03:06:05;99879.91;;;20.80;68.46
13011;BME280;6786;57.632;11.962;2023-08-31T03:08:34;99809.22;;;20.32;68.41
13011;BME280;6786;57.632;11.962;2023-08-31T03:11:04;99843.81;;;20.59;68.02
13011;BME280;6786;57.632;11.962;2023-08-31T03:13:32;99883.28;;;20.82;68.40
13011;BME280;6786;57.632;11.962;2023-08-31T03:16:03;99894.00;;;20.82;68.26
13011;BME280;6786;57.632;11.962;2023-08-31T03:18:32;99887.31;;;20.78;68.46
13011;BME280;6786;57.632;11.962;2023-08-31T03:21:00;99887.97;;;20.80;68.04
13011;BME280;6786;57.632;11.962;2023-08-31T03:23:29;99874.72;;;20.71;68.25
13011;BME280;6786;57.632;11.962;2023-08-31T03:25:59;99749.94;;;19.93;68.12
13011;BME280;6786;57.632;11.962;2023-08-31T03:28:27;99892.34;;;20.81;68.47
13011;BME280;6786;57.632;11.962;2023-08-31T03:30:57;99890.66;;;20.80;68.31
13011;BME280;6786;57.632;11.962;2023-08-31T03:33:26;99892.34;;;20.81;68.23
13011;BME280;6786;57.632;11.962;2023-08-31T03:35:59;99893.31;;;20.80;68.11
13011;BME280;6786;57.632;11.962;2023-08-31T03:38:31;99896.00;;;20.80;68.03
13011;BME280;6786;57.632;11.962;2023-08-31T03:40:59;99890.66;;;20.80;68.11
13011;BME280;6786;57.632;11.962;2023-08-31T03:43:28;99887.31;;;20.78;68.36
13011;BME280;6786;57.632;11.962;2023-08-31T03:45:58;99885.28;;;20.80;68.23
13011;BME280;6786;57.632;11.962;2023-08-31T03:48:28;99879.91;;;20.80;68.39
13011;BME280;6786;57.632;11.962;2023-08-31T03:50:57;99873.19;;;20.76;68.07
13011;BME280;6786;57.632;11.962;2023-08-31T03:53:26;99862.44;;;20.76;68.05
13011;BME280;6786;57.632;11.962;2023-08-31T03:55:54;99858.28;;;20.74;68.47
13011;BME280;6786;57.632;11.962;2023-08-31T03:58:23;99868.81;;;20.83;68.23
13011;BME280;6786;57.632;11.962;2023-08-31T04:00:51;99863.78;;;20.80;68.07
13011;BME280;6786;57.632;11.962;2023-08-31T04:03:23;99879.91;;;20.80;67.92
13011;BME280;6786;57.632;11.962;2023-08-31T04:05:58;99866.50;;;20.88;67.89
13011;BME280;6786;57.632;11.962;2023-08-31T04:08:27;99877.22;;;20.88;67.91
13011;BME280;6786;57.632;11.962;2023-08-31T04:10:56;99869.34;;;20.87;67.86
13011;BME280;6786;57.632;11.962;2023-08-31T04:13:24;99806.38;;;20.49;68.07
13011;BME280;6786;57.632;11.962;2023-08-31T04:15:53;99865.16;;;20.84;67.95
13011;BME280;6786;57.632;11.962;2023-08-31T04:18:21;99799.34;;;20.48;68.37
13011;BME280;6786;57.632;11.962;2023-08-31T04:20:51;99858.09;;;20.83;68.14
13011;BME280;6786;57.632;11.962;2023-08-31T04:23:21;99881.59;;;20.81;68.15
13011;BME280;6786;57.632;11.962;2023-08-31T04:25:49;99858.09;;;20.83;68.03
13011;BME280;6786;57.632;11.962;2023-08-31T04:28:18;99861.78;;;20.82;68.20
13011;BME280;6786;57.632;11.962;2023-08-31T04:30:46;99851.03;;;20.82;68.05
13011;BME280;6786;57.632;11.962;2023-08-31T04:33:16;99788.75;;;20.39;68.15
13011;BME280;6786;57.632;11.962;2023-08-31T04:35:44;99852.88;;;20.82;68.00
13011;BME280;6786;57.632;11.962;2023-08-31T04:38:13;99858.41;;;20.80;68.29
13011;BME280;6786;57.632;11.962;2023-08-31T04:40:42;99802.72;;;20.50;68.00
13011;BME280;6786;57.632;11.962;2023-08-31T04:43:11;99857.59;;;20.80;68.24
13011;BME280;6786;57.632;11.962;2023-08-31T04:45:40;99840.63;;;20.63;68.00
13011;BME280;6786;57.632;11.962;2023-08-31T04:48:08;99865.50;;;20.81;68.10
13011;BME280;6786;57.632;11.962;2023-08-31T04:50:36;99865.50;;;20.81;67.94
13011;BME280;6786;57.632;11.962;2023-08-31T04:53:05;99865.50;;;20.81;68.09
13011;BME280;6786;57.632;11.962;2023-08-31T04:55:33;99784.56;;;20.36;68.08
13011;BME280;6786;57.632;11.962;2023-08-31T04:58:04;99863.78;;;20.80;67.94
13011;BME280;6786;57.632;11.962;2023-08-31T05:00:32;99863.78;;;20.80;67.87
13011;BME280;6786;57.632;11.962;2023-08-31T05:03:00;99866.47;;;20.80;67.96
13011;BME280;6786;57.632;11.962;2023-08-31T05:05:30;99869.16;;;20.80;67.78
13011;BME280;6786;57.632;11.962;2023-08-31T05:08:01;99807.06;;;20.35;67.96
13011;BME280;6786;57.632;11.962;2023-08-31T05:10:30;99865.66;;;20.80;68.03
13011;BME280;6786;57.632;11.962;2023-08-31T05:12:58;99808.06;;;20.42;68.20
13011;BME280;6786;57.632;11.962;2023-08-31T05:15:27;99829.56;;;20.50;67.89
13011;BME280;6786;57.632;11.962;2023-08-31T05:17:56;99875.72;;;20.78;68.11
13011;BME280;6786;57.632;11.962;2023-08-31T05:20:25;99881.94;;;20.78;68.05
13011;BME280;6786;57.632;11.962;2023-08-31T05:22:54;99812.41;;;20.27;67.86
13011;BME280;6786;57.632;11.962;2023-08-31T05:25:22;99882.75;;;20.79;68.12
13011;BME280;6786;57.632;11.962;2023-08-31T05:27:54;99878.22;;;20.79;67.74
13011;BME280;6786;57.632;11.962;2023-08-31T05:30:22;99892.69;;;20.78;67.71
13011;BME280;6786;57.632;11.962;2023-08-31T05:32:51;99891.66;;;20.79;67.99
13011;BME280;6786;57.632;11.962;2023-08-31T05:35:20;99888.97;;;20.79;68.09
13011;BME280;6786;57.632;11.962;2023-08-31T05:37:48;99894.34;;;20.79;67.88
13011;BME280;6786;57.632;11.962;2023-08-31T05:40:17;99888.13;;;20.79;67.83
13011;BME280;6786;57.632;11.962;2023-08-31T05:42:45;99817.78;;;20.35;67.86
13011;BME280;6786;57.632;11.962;2023-08-31T05:45:13;99890.00;;;20.78;67.77
13011;BME280;6786;57.632;11.962;2023-08-31T05:47:41;99891.66;;;20.79;67.92
13011;BME280;6786;57.632;11.962;2023-08-31T05:50:11;99893.66;;;20.77;67.94
13011;BME280;6786;57.632;11.962;2023-08-31T05:52:39;99901.72;;;20.77;68.18
13011;BME280;6786;57.632;11.962;2023-08-31T05:55:10;99886.59;;;20.68;67.93
13011;BME280;6786;57.632;11.962;2023-08-31T05:57:38;99905.41;;;20.76;67.84
13011;BME280;6786;57.632;11.962;2023-08-31T06:00:07;99910.78;;;20.76;67.89
13011;BME280;6786;57.632;11.962;2023-08-31T06:02:36;99909.94;;;20.76;68.10
13011;BME280;6786;57.632;11.962;2023-08-31T06:05:05;99911.63;;;20.77;67.76
13011;BME280;6786;57.632;11.962;2023-08-31T06:07:35;99900.91;;;20.77;67.80
13011;BME280;6786;57.632;11.962;2023-08-31T06:10:04;99901.72;;;20.77;68.06
13011;BME280;6786;57.632;11.962;2023-08-31T06:12:32;99905.41;;;20.76;67.89
13011;BME280;6786;57.632;11.962;2023-08-31T06:15:00;99906.28;;;20.77;67.71
13011;BME280;6786;57.632;11.962;2023-08-31T06:17:29;99827.97;;;20.24;67.97
13011;BME280;6786;57.632;11.962;2023-08-31T06:19:57;99905.75;;;20.73;68.10
13011;BME280;6786;57.632;11.962;2023-08-31T06:22:26;99910.78;;;20.76;67.82
13011;BME280;6786;57.632;11.962;2023-08-31T06:24:55;99905.41;;;20.76;68.03
13011;BME280;6786;57.632;11.962;2023-08-31T06:27:23;99903.06;;;20.73;67.81
13011;BME280;6786;57.632;11.962;2023-08-31T06:29:51;99903.75;;;20.75;67.81
13011;BME280;6786;57.632;11.962;2023-08-31T06:32:19;99902.72;;;20.76;68.11
13011;BME280;6786;57.632;11.962;2023-08-31T06:34:47;99907.09;;;20.77;68.07
13011;BME280;6786;57.632;11.962;2023-08-31T06:37:16;99909.13;;;20.75;67.83
13011;BME280;6786;57.632;11.962;2023-08-31T06:39:44;99916.16;;;20.76;67.81
13011;BME280;6786;57.632;11.962;2023-08-31T06:42:13;99905.41;;;20.76;67.87
13011;BME280;6786;57.632;11.962;2023-08-31T06:44:41;99909.13;;;20.75;67.79
13011;BME280;6786;57.632;11.962;2023-08-31T06:47:09;99910.78;;;20.76;67.91
13011;BME280;6786;57.632;11.962;2023-08-31T06:49:38;99916.16;;;20.76;67.85
13011;BME280;6786;57.632;11.962;2023-08-31T06:52:06;99909.13;;;20.75;67.93
13011;BME280;6786;57.632;11.962;2023-08-31T06:54:54;99837.03;;;20.23;67.87
13011;BME280;6786;57.632;11.962;2023-08-31T06:57:25;99907.41;;;20.74;68.16
13011;BME280;6786;57.632;11.962;2023-08-31T06:59:54;99896.00;;;20.64;67.95
13011;BME280;6786;57.632;11.962;2023-08-31T07:02:22;99911.97;;;20.74;68.09
13011;BME280;6786;57.632;11.962;2023-08-31T07:04:51;99905.75;;;20.73;68.01
13011;BME280;6786;57.632;11.962;2023-08-31T07:07:20;99911.81;;;20.75;68.12
13011;BME280;6786;57.632;11.962;2023-08-31T07:09:48;99913.63;;;20.75;68.10
13011;BME280;6786;57.632;11.962;2023-08-31T07:12:16;99914.50;;;20.75;68.29
13011;BME280;6786;57.632;11.962;2023-08-31T07:14:45;99907.75;;;20.71;68.04
13011;BME280;6786;57.632;11.962;2023-08-31T07:17:17;99909.13;;;20.75;68.14
13011;BME280;6786;57.632;11.962;2023-08-31T07:19:46;99915.31;;;20.76;68.10
13011;BME280;6786;57.632;11.962;2023-08-31T07:22:14;99890.97;;;20.61;68.16
13011;BME280;6786;57.632;11.962;2023-08-31T07:24:42;99861.72;;;20.34;67.95
13011;BME280;6786;57.632;11.962;2023-08-31T07:27:11;99921.53;;;20.76;67.88
13011;BME280;6786;57.632;11.962;2023-08-31T07:29:39;99918.84;;;20.76;67.99
13011;BME280;6786;57.632;11.962;2023-08-31T07:32:09;99918.00;;;20.76;67.95
13011;BME280;6786;57.632;11.962;2023-08-31T07:34:38;99838.88;;;20.22;68.15
13011;BME280;6786;57.632;11.962;2023-08-31T07:37:06;99921.53;;;20.76;68.13
13011;BME280;6786;57.632;11.962;2023-08-31T07:39:34;99921.53;;;20.76;68.14
13011;BME280;6786;57.632;11.962;2023-08-31T07:42:04;99920.84;;;20.74;67.86
13011;BME280;6786;57.632;11.962;2023-08-31T07:44:32;99928.56;;;20.77;68.07
13011;BME280;6786;57.632;11.962;2023-08-31T07:47:00;99917.34;;;20.74;68.10
13011;BME280;6786;57.632;11.962;2023-08-31T07:49:30;99919.88;;;20.75;67.96
13011;BME280;6786;57.632;11.962;2023-08-31T07:51:58;99926.06;;;20.76;67.86
13011;BME280;6786;57.632;11.962;2023-08-31T07:54:26;99924.22;;;20.76;68.24
13011;BME280;6786;57.632;11.962;2023-08-31T07:56:54;99917.50;;;20.72;68.04
13011;BME280;6786;57.632;11.962;2023-08-31T07:59:23;99925.22;;;20.75;68.19
13011;BME280;6786;57.632;11.962;2023-08-31T08:01:51;99928.91;;;20.74;68.17
13011;BME280;6786;57.632;11.962;2023-08-31T08:04:19;99931.41;;;20.76;68.04
13011;BME280;6786;57.632;11.962;2023-08-31T08:06:50;99771.03;;;19.80;67.99
13011;BME280;6786;57.632;11.962;2023-08-31T08:09:18;99925.22;;;20.75;68.36
13011;BME280;6786;57.632;11.962;2023-08-31T08:11:46;99925.22;;;20.75;68.12
13011;BME280;6786;57.632;11.962;2023-08-31T08:14:14;99925.22;;;20.75;68.33
13011;BME280;6786;57.632;11.962;2023-08-31T08:16:43;99936.78;;;20.76;68.08
13011;BME280;6786;57.632;11.962;2023-08-31T08:19:11;99931.41;;;20.76;68.29
13011;BME280;6786;57.632;11.962;2023-08-31T08:21:39;99930.59;;;20.75;68.27
13011;BME280;6786;57.632;11.962;2023-08-31T08:24:09;99932.28;;;20.76;68.18
13011;BME280;6786;57.632;11.962;2023-08-31T08:26:37;99930.59;;;20.75;68.04
13011;BME280;6786;57.632;11.962;2023-08-31T08:29:05;99918.81;;;20.68;68.06
13011;BME280;6786;57.632;11.962;2023-08-31T08:31:34;99928.91;;;20.74;68.07
13011;BME280;6786;57.632;11.962;2023-08-31T08:34:02;99929.75;;;20.75;68.32
13011;BME280;6786;57.632;11.962;2023-08-31T08:36:30;99919.88;;;20.75;68.31
13011;BME280;6786;57.632;11.962;2023-08-31T08:38:58;99921.88;;;20.73;68.27
13011;BME280;6786;57.632;11.962;2023-08-31T08:41:29;99923.53;;;20.74;68.29
13011;BME280;6786;57.632;11.962;2023-08-31T08:44:02;99923.53;;;20.74;68.36
13011;BME280;6786;57.632;11.962;2023-08-31T08:46:31;99925.22;;;20.75;68.18
13011;BME280;6786;57.632;11.962;2023-08-31T08:49:00;99929.75;;;20.75;68.31
13011;BME280;6786;57.632;11.962;2023-08-31T08:51:32;99921.00;;;20.73;68.42
13011;BME280;6786;57.632;11.962;2023-08-31T08:54:01;99916.50;;;20.73;68.46
13011;BME280;6786;57.632;11.962;2023-08-31T08:56:31;99922.72;;;20.74;68.34
13011;BME280;6786;57.632;11.962;2023-08-31T08:59:00;99922.72;;;20.74;68.41
13011;BME280;6786;57.632;11.962;2023-08-31T09:01:28;99927.22;;;20.73;68.19
13011;BME280;6786;57.632;11.962;2023-08-31T09:03:56;99923.53;;;20.74;68.20
13011;BME280;6786;57.632;11.962;2023-08-31T09:06:25;99921.88;;;20.73;68.49
13011;BME280;6786;57.632;11.962;2023-08-31T09:08:55;99915.31;;;20.76;68.09
13011;BME280;6786;57.632;11.962;2023-08-31T09:11:24;99919.19;;;20.73;68.57
13011;BME280;6786;57.632;11.962;2023-08-31T09:13:56;99911.13;;;20.73;68.51
13011;BME280;6786;57.632;11.962;2023-08-31T09:16:26;99913.81;;;20.73;68.16
13011;BME280;6786;57.632;11.962;2023-08-31T09:18:55;99912.94;;;20.73;68.56
13011;BME280;6786;57.632;11.962;2023-08-31T09:21:34;99910.09;;;20.74;68.19
13011;BME280;6786;57.632;11.962;2023-08-31T09:24:05;99911.97;;;20.74;68.10
13011;BME280;6786;57.632;11.962;2023-08-31T09:26:37;99927.91;;;20.75;68.31
13011;BME280;6786;57.632;11.962;2023-08-31T09:29:07;99905.75;;;20.73;68.16
13011;BME280;6786;57.632;11.962;2023-08-31T09:31:35;99912.78;;;20.74;68.44
13011;BME280;6786;57.632;11.962;2023-08-31T09:34:04;99907.41;;;20.74;68.52
13011;BME280;6786;57.632;11.962;2023-08-31T09:36:32;99914.50;;;20.75;68.45
13011;BME280;6786;57.632;11.962;2023-08-31T09:39:01;99895.31;;;20.62;68.51
13011;BME280;6786;57.632;11.962;2023-08-31T09:41:29;99914.50;;;20.75;68.26
13011;BME280;6786;57.632;11.962;2023-08-31T09:44:15;99918.84;;;20.76;68.37
13011;BME280;6786;57.632;11.962;2023-08-31T09:46:44;99874.66;;;20.55;68.33
13011;BME280;6786;57.632;11.962;2023-08-31T09:49:14;99910.09;;;20.74;68.19
13011;BME280;6786;57.632;11.962;2023-08-31T09:51:44;99897.66;;;20.65;68.20
13011;BME280;6786;57.632;11.962;2023-08-31T09:54:14;99912.47;;;20.77;68.10
13011;BME280;6786;57.632;11.962;2023-08-31T09:56:44;99917.84;;;20.77;68.19
13011;BME280;6786;57.632;11.962;2023-08-31T09:59:14;99907.25;;;20.76;68.59
13011;BME280;6786;57.632;11.962;2023-08-31T10:01:45;99918.84;;;20.76;68.22
13011;BME280;6786;57.632;11.962;2023-08-31T10:04:14;99907.09;;;20.77;68.21
13011;BME280;6786;57.632;11.962;2023-08-31T10:06:42;99905.41;;;20.76;68.07
13011;BME280;6786;57.632;11.962;2023-08-31T10:09:11;99912.47;;;20.77;68.13
13011;BME280;6786;57.632;11.962;2023-08-31T10:11:41;99905.41;;;20.76;67.98
13011;BME280;6786;57.632;11.962;2023-08-31T10:14:11;99901.72;;;20.77;68.09
13011;BME280;6786;57.632;11.962;2023-08-31T10:16:39;99748.53;;;19.73;68.35
13011;BME280;6786;57.632;11.962;2023-08-31T10:19:10;99902.72;;;20.76;68.54
13011;BME280;6786;57.632;11.962;2023-08-31T10:21:40;99830.16;;;20.28;68.31
13011;BME280;6786;57.632;11.962;2023-08-31T10:24:11;99898.38;;;20.75;68.28
13011;BME280;6786;57.632;11.962;2023-08-31T10:26:39;99898.38;;;20.75;68.61
13011;BME280;6786;57.632;11.962;2023-08-31T10:29:25;99901.22;;;20.74;68.41
13011;BME280;6786;57.632;11.962;2023-08-31T10:31:54;99883.25;;;20.66;68.39
13011;BME280;6786;57.632;11.962;2023-08-31T10:34:35;99897.53;;;20.75;68.62
13011;BME280;6786;57.632;11.962;2023-08-31T10:37:19;99898.38;;;20.75;68.28
13011;BME280;6786;57.632;11.962;2023-08-31T10:39:48;99904.56;;;20.76;68.36
13011;BME280;6786;57.632;11.962;2023-08-31T10:42:16;99828.84;;;20.32;68.54
13011;BME280;6786;57.632;11.962;2023-08-31T10:44:45;99904.72;;;20.74;68.48
13011;BME280;6786;57.632;11.962;2023-08-31T10:47:13;99908.44;;;20.73;68.52
13011;BME280;6786;57.632;11.962;2023-08-31T10:49:50;99906.59;;;20.74;68.72
13011;BME280;6786;57.632;11.962;2023-08-31T10:52:19;99904.09;;;20.72;68.45
13011;BME280;6786;57.632;11.962;2023-08-31T10:55:07;99900.38;;;20.73;68.82
13011;BME280;6786;57.632;11.962;2023-08-31T10:57:36;99905.75;;;20.73;68.75
13011;BME280;6786;57.632;11.962;2023-08-31T11:00:05;99908.44;;;20.73;68.76
13011;BME280;6786;57.632;11.962;2023-08-31T11:02:35;99902.06;;;20.74;68.57
13011;BME280;6786;57.632;11.962;2023-08-31T11:05:09;99902.06;;;20.74;68.70
13011;BME280;6786;57.632;11.962;2023-08-31T11:07:38;99897.53;;;20.75;68.50
13011;BME280;6786;57.632;11.962;2023-08-31T11:10:12;99891.31;;;20.74;68.59
13011;BME280;6786;57.632;11.962;2023-08-31T11:12:42;99893.00;;;20.75;68.78
13011;BME280;6786;57.632;11.962;2023-08-31T11:15:11;99885.94;;;20.74;68.80
13011;BME280;6786;57.632;11.962;2023-08-31T11:17:40;99884.28;;;20.73;68.67
13011;BME280;6786;57.632;11.962;2023-08-31T11:20:13;99880.56;;;20.74;68.85
13011;BME280;6786;57.632;11.962;2023-08-31T11:22:43;99800.31;;;20.23;68.88
13011;BME280;6786;57.632;11.962;2023-08-31T11:25:13;99812.41;;;20.27;68.63
13011;BME280;6786;57.632;11.962;2023-08-31T11:27:42;99869.50;;;20.69;68.62
13011;BME280;6786;57.632;11.962;2023-08-31T11:30:12;99883.25;;;20.74;68.76
13011;BME280;6786;57.632;11.962;2023-08-31T11:32:45;99885.13;;;20.74;68.89
13011;BME280;6786;57.632;11.962;2023-08-31T11:35:16;99880.56;;;20.74;69.05
13011;BME280;6786;57.632;11.962;2023-08-31T11:37:44;99875.19;;;20.74;68.78
13011;BME280;6786;57.632;11.962;2023-08-31T11:40:13;99849.69;;;20.54;68.82
13011;BME280;6786;57.632;11.962;2023-08-31T11:42:42;99873.50;;;20.65;68.86
13011;BME280;6786;57.632;11.962;2023-08-31T11:45:11;99864.78;;;20.55;68.65
13011;BME280;6786;57.632;11.962;2023-08-31T11:47:41;99888.47;;;20.76;68.82
13011;BME280;6786;57.632;11.962;2023-08-31T11:50:11;99878.56;;;20.76;68.63
13011;BME280;6786;57.632;11.962;2023-08-31T11:52:43;99887.63;;;20.75;68.59
13011;BME280;6786;57.632;11.962;2023-08-31T11:55:12;99886.63;;;20.76;68.57
13011;BME280;6786;57.632;11.962;2023-08-31T11:57:40;99884.94;;;20.75;68.90
13011;BME280;6786;57.632;11.962;2023-08-31T12:00:09;99882.25;;;20.75;68.63
13011;BME280;6786;57.632;11.962;2023-08-31T12:02:38;99887.63;;;20.75;68.97
13011;BME280;6786;57.632;11.962;2023-08-31T12:05:07;99883.09;;;20.76;68.62
13011;BME280;6786;57.632;11.962;2023-08-31T12:07:39;99878.91;;;20.73;69.00
13011;BME280;6786;57.632;11.962;2023-08-31T12:10:10;99881.25;;;20.76;68.93
13011;BME280;6786;57.632;11.962;2023-08-31T12:12:38;99889.31;;;20.76;68.59
13011;BME280;6786;57.632;11.962;2023-08-31T12:15:06;99885.94;;;20.74;68.71
13011;BME280;6786;57.632;11.962;2023-08-31T12:17:38;99896.34;;;20.77;69.02
13011;BME280;6786;57.632;11.962;2023-08-31T12:20:07;99895.53;;;20.77;68.54
13011;BME280;6786;57.632;11.962;2023-08-31T12:22:36;99898.06;;;20.78;68.92
13011;BME280;6786;57.632;11.962;2023-08-31T12:25:06;99904.25;;;20.79;68.77
13011;BME280;6786;57.632;11.962;2023-08-31T12:27:35;99898.06;;;20.78;68.54
13011;BME280;6786;57.632;11.962;2023-08-31T12:30:04;99901.72;;;20.77;68.99
13011;BME280;6786;57.632;11.962;2023-08-31T12:32:32;99903.75;;;20.75;68.97
13011;BME280;6786;57.632;11.962;2023-08-31T12:35:00;99908.09;;;20.76;68.73
13011;BME280;6786;57.632;11.962;2023-08-31T12:37:30;99914.50;;;20.75;69.06
13011;BME280;6786;57.632;11.962;2023-08-31T12:39:59;99926.91;;;20.76;68.92
13011;BME280;6786;57.632;11.962;2023-08-31T12:42:30;99939.31;;;20.77;68.81
13011;BME280;6786;57.632;11.962;2023-08-31T12:45:00;99947.38;;;20.77;69.22
13011;BME280;6786;57.632;11.962;2023-08-31T12:47:28;99966.16;;;20.77;68.90
13011;BME280;6786;57.632;11.962;2023-08-31T12:49:56;99969.88;;;20.76;68.74
13011;BME280;6786;57.632;11.962;2023-08-31T12:52:24;99973.56;;;20.75;68.78
13011;BME280;6786;57.632;11.962;2023-08-31T12:54:52;99898.91;;;20.21;69.29
13011;BME280;6786;57.632;11.962;2023-08-31T12:57:21;99982.28;;;20.77;68.85
13011;BME280;6786;57.632;11.962;2023-08-31T12:59:49;99966.16;;;20.77;68.79
13011;BME280;6786;57.632;11.962;2023-08-31T13:02:19;99972.41;;;20.78;69.10
13011;BME280;6786;57.632;11.962;2023-08-31T13:04:47;99976.91;;;20.77;68.90
13011;BME280;6786;57.632;11.962;2023-08-31T13:07:15;99983.97;;;20.78;68.95
13011;BME280;6786;57.632;11.962;2023-08-31T13:09:43;99994.72;;;20.78;69.07
13011;BME280;6786;57.632;11.962;2023-08-31T13:12:14;99970.31;;;20.64;69.23
13011;BME280;6786;57.632;11.962;2023-08-31T13:14:43;99971.81;;;20.58;69.07